Time;durP1;ratioP1;P1;durP2;ratioP2;P2;SDS_P1;SDS_P2;PMS_P1;PMS_P2;Temp;Humidity;BMP_temperature;BMP_pressure;BME280_temperature;BME280_humidity;BME280_pressure;Samples;Min_cycle;Max_cycle;Signal;HPM_P1;HPM_P2
2022/08/15 00:01:10;;;;;;;13.48;12.00;;;;;;;;;;5075988;28;20012;-65
2022/08/15 00:03:38;;;;;;;13.05;11.68;;;;;;;;;;5076207;28;20028;-64
2022/08/15 00:06:06;;;;;;;15.55;11.75;;;;;;;;;;5076135;28;20029;-64
2022/08/15 00:08:33;;;;;;;13.75;12.35;;;;;;;;;;5075953;28;20112;-64
2022/08/15 00:11:02;;;;;;;14.23;11.85;;;;;;;;;;5076102;28;20020;-65
2022/08/15 00:13:31;;;;;;;13.27;11.98;;;;;;;;;;5076162;28;20035;-65
2022/08/15 00:15:57;;;;;;;14.55;12.15;;;;;;;;;;5076125;28;20017;-64
2022/08/15 00:18:24;;;;;;;15.60;12.13;;;;;;;;;;5082349;28;20038;-65
2022/08/15 00:20:50;;;;;;;17.40;13.18;;;;;;;;;;5083226;28;20028;-65
2022/08/15 00:23:18;;;;;;;14.50;11.68;;;;;;;;;;5081147;28;20070;-64
2022/08/15 00:25:53;;;;;;;14.63;11.25;;;;;;;;;;5075939;28;20031;-66
2022/08/15 00:28:19;;;;;;;12.32;11.13;;;;;;;;;;5074174;28;20398;-64
2022/08/15 00:30:45;;;;;;;15.63;11.65;;;;;;;;;;5075944;28;20100;-63
2022/08/15 00:33:12;;;;;;;13.00;11.60;;;;;;;;;;5077685;28;20021;-66
2022/08/15 00:35:42;;;;;;;13.50;11.63;;;;;;;;;;5087810;28;20032;-64
2022/08/15 00:38:19;;;;;;;13.82;11.45;;;;;;;;;;5075180;28;20045;-64
2022/08/15 00:43:34;;;;;;;12.30;11.05;;;;;;;;;;5075394;28;20066;-65
2022/08/15 00:46:01;;;;;;;13.00;11.60;;;;;;;;;;5075288;28;20017;-64
2022/08/15 00:48:43;;;;;;;11.50;10.40;;;;;;;;;;5079396;28;20073;-65
2022/08/15 00:51:15;;;;;;;12.40;11.07;;;;;;;;;;5075119;28;20012;-64
2022/08/15 00:53:43;;;;;;;12.35;11.07;;;;;;;;;;5075150;28;20032;-66
2022/08/15 00:56:10;;;;;;;14.38;11.20;;;;;;;;;;5075019;28;20020;-64
2022/08/15 00:58:36;;;;;;;13.00;11.23;;;;;;;;;;5074911;28;20036;-63
2022/08/15 01:01:04;;;;;;;13.50;10.60;;;;;;;;;;5073175;28;20025;-64
2022/08/15 01:03:32;;;;;;;15.70;11.93;;;;;;;;;;5074860;28;20055;-64
2022/08/15 01:05:59;;;;;;;15.68;10.60;;;;;;;;;;5073632;28;20058;-66
2022/08/15 01:08:28;;;;;;;13.45;11.57;;;;;;;;;;5074174;28;20051;-65
2022/08/15 01:10:55;;;;;;;11.70;10.38;;;;;;;;;;5073096;28;20046;-66
2022/08/15 01:13:22;;;;;;;12.55;10.70;;;;;;;;;;5074824;28;20020;-64
2022/08/15 01:15:48;;;;;;;17.75;11.90;;;;;;;;;;5074475;28;20024;-65
2022/08/15 01:18:14;;;;;;;14.32;10.90;;;;;;;;;;5079303;28;20085;-64
2022/08/15 01:20:41;;;;;;;13.23;11.13;;;;;;;;;;5079575;28;20024;-64
2022/08/15 01:23:20;;;;;;;12.45;10.13;;;;;;;;;;5074441;28;20027;-64
2022/08/15 01:25:54;;;;;;;13.00;10.40;;;;;;;;;;5074993;28;20086;-64
2022/08/15 01:28:26;;;;;;;12.10;10.65;;;;;;;;;;5074280;28;20538;-64
2022/08/15 01:30:57;;;;;;;12.73;10.27;;;;;;;;;;5074742;28;20051;-63
2022/08/15 01:33:25;;;;;;;12.15;10.90;;;;;;;;;;5078285;28;20020;-64
2022/08/15 01:35:52;;;;;;;12.73;11.23;;;;;;;;;;5084655;28;20045;-65
2022/08/15 01:38:21;;;;;;;12.35;11.15;;;;;;;;;;5073718;28;20041;-66
2022/08/15 01:40:53;;;;;;;11.93;10.73;;;;;;;;;;5074273;28;20028;-65
2022/08/15 01:43:23;;;;;;;11.60;10.13;;;;;;;;;;5074037;28;20367;-65
2022/08/15 01:45:49;;;;;;;12.55;10.13;;;;;;;;;;5074237;28;20044;-64
2022/08/15 01:48:21;;;;;;;14.15;11.10;;;;;;;;;;5081447;28;20056;-64
2022/08/15 01:50:49;;;;;;;13.98;11.23;;;;;;;;;;5074085;28;20074;-63
2022/08/15 01:53:18;;;;;;;11.82;10.63;;;;;;;;;;5073894;28;20032;-64
2022/08/15 01:55:48;;;;;;;15.95;11.25;;;;;;;;;;5073617;28;20092;-64
2022/08/15 01:58:15;;;;;;;11.75;10.15;;;;;;;;;;5073887;28;20036;-64
2022/08/15 02:00:49;;;;;;;13.13;10.65;;;;;;;;;;5073629;28;20095;-64
2022/08/15 02:03:15;;;;;;;13.48;10.80;;;;;;;;;;5074016;28;20139;-64
2022/08/15 02:05:41;;;;;;;12.73;11.18;;;;;;;;;;5073991;28;20028;-63
2022/08/15 02:08:07;;;;;;;12.38;10.90;;;;;;;;;;5073461;28;20020;-65
2022/08/15 02:10:34;;;;;;;12.02;10.82;;;;;;;;;;5073541;28;20095;-65
2022/08/15 02:13:00;;;;;;;12.00;10.73;;;;;;;;;;5073596;28;20028;-65
2022/08/15 02:15:26;;;;;;;14.00;10.73;;;;;;;;;;5073565;28;20034;-65
2022/08/15 02:17:52;;;;;;;13.77;10.35;;;;;;;;;;5073128;28;20131;-65
2022/08/15 02:20:19;;;;;;;11.95;10.75;;;;;;;;;;5081211;28;20024;-65
2022/08/15 02:22:45;;;;;;;11.77;10.50;;;;;;;;;;5073592;28;20524;-65
2022/08/15 02:25:11;;;;;;;14.93;11.35;;;;;;;;;;5073141;28;20021;-65
2022/08/15 02:27:38;;;;;;;14.50;10.52;;;;;;;;;;5073531;28;20028;-66
2022/08/15 02:30:09;;;;;;;11.52;10.32;;;;;;;;;;5073523;28;20104;-66
2022/08/15 02:32:38;;;;;;;12.70;11.00;;;;;;;;;;5073125;28;20108;-65
2022/08/15 02:35:05;;;;;;;13.55;10.45;;;;;;;;;;5087366;28;20036;-65
2022/08/15 02:37:31;;;;;;;12.90;10.80;;;;;;;;;;5072609;28;20048;-66
2022/08/15 02:39:57;;;;;;;14.73;10.55;;;;;;;;;;5073089;28;20547;-65
2022/08/15 02:42:24;;;;;;;11.82;10.63;;;;;;;;;;5072881;28;20032;-65
2022/08/15 02:44:50;;;;;;;11.85;9.93;;;;;;;;;;5073162;28;20104;-65
2022/08/15 02:47:18;;;;;;;14.15;10.63;;;;;;;;;;5074874;28;20360;-65
2022/08/15 02:49:45;;;;;;;15.10;10.60;;;;;;;;;;5084399;28;20044;-64
2022/08/15 02:52:12;;;;;;;12.57;11.25;;;;;;;;;;5074217;28;20012;-65
2022/08/15 02:54:38;;;;;;;12.93;11.52;;;;;;;;;;5072623;28;20382;-64
2022/08/15 02:57:04;;;;;;;17.27;10.32;;;;;;;;;;5073792;28;20475;-64
2022/08/15 02:59:30;;;;;;;13.00;10.90;;;;;;;;;;5081759;28;20111;-65
2022/08/15 03:01:57;;;;;;;12.32;10.90;;;;;;;;;;5073453;28;20024;-65
2022/08/15 03:04:23;;;;;;;12.35;10.45;;;;;;;;;;5072683;28;20390;-65
2022/08/15 03:06:52;;;;;;;11.68;10.07;;;;;;;;;;5074785;28;20111;-64
2022/08/15 03:09:19;;;;;;;14.57;11.30;;;;;;;;;;5072669;28;20036;-64
2022/08/15 03:11:45;;;;;;;15.13;10.82;;;;;;;;;;5073862;28;20111;-66
2022/08/15 03:14:13;;;;;;;13.15;10.25;;;;;;;;;;5072273;28;20020;-64
2022/08/15 03:16:43;;;;;;;12.45;11.07;;;;;;;;;;5076874;28;20036;-63
2022/08/15 03:19:16;;;;;;;11.20;9.60;;;;;;;;;;5081878;28;20028;-64
2022/08/15 03:21:42;;;;;;;11.05;9.95;;;;;;;;;;5074666;28;20048;-64
2022/08/15 03:24:09;;;;;;;11.63;10.43;;;;;;;;;;5072351;28;20021;-64
2022/08/15 03:26:36;;;;;;;15.93;10.70;;;;;;;;;;5073163;28;20540;-64
2022/08/15 03:29:02;;;;;;;13.60;10.07;;;;;;;;;;5073319;28;20029;-65
2022/08/15 03:31:28;;;;;;;12.98;10.50;;;;;;;;;;5083313;28;20028;-62
2022/08/15 03:33:55;;;;;;;12.68;10.50;;;;;;;;;;5080068;28;20027;-63
2022/08/15 03:36:23;;;;;;;12.10;10.45;;;;;;;;;;5078401;28;20402;-64
2022/08/15 03:38:49;;;;;;;14.60;10.90;;;;;;;;;;5072004;28;20041;-64
2022/08/15 03:41:16;;;;;;;14.27;10.73;;;;;;;;;;5085553;28;20030;-63
2022/08/15 03:43:43;;;;;;;14.02;10.65;;;;;;;;;;5073074;28;20035;-64
2022/08/15 03:46:10;;;;;;;11.07;9.77;;;;;;;;;;5072070;28;20023;-64
2022/08/15 03:48:39;;;;;;;13.63;10.52;;;;;;;;;;5073353;28;20029;-63
2022/08/15 03:51:07;;;;;;;14.02;11.27;;;;;;;;;;5077845;28;20402;-63
2022/08/15 03:53:44;;;;;;;13.98;10.70;;;;;;;;;;5074351;28;20054;-63
2022/08/15 03:56:11;;;;;;;12.07;9.70;;;;;;;;;;5072520;28;20024;-64
2022/08/15 03:58:38;;;;;;;13.75;11.52;;;;;;;;;;5071534;28;20039;-63
2022/08/15 04:01:11;;;;;;;18.80;14.70;;;;;;;;;;5079117;28;20032;-63
2022/08/15 04:03:37;;;;;;;15.48;11.23;;;;;;;;;;5079912;28;20024;-70
2022/08/15 04:06:06;;;;;;;11.27;9.68;;;;;;;;;;5077584;28;20585;-66
2022/08/15 04:08:32;;;;;;;13.25;9.73;;;;;;;;;;5082206;28;20363;-68
2022/08/15 04:11:01;;;;;;;16.55;11.32;;;;;;;;;;5072464;28;20033;-69
2022/08/15 04:13:27;;;;;;;14.20;11.43;;;;;;;;;;5072763;28;20025;-69
2022/08/15 04:15:54;;;;;;;13.55;10.93;;;;;;;;;;5072476;28;20043;-68
2022/08/15 04:18:20;;;;;;;12.02;10.45;;;;;;;;;;5071891;28;20486;-68
2022/08/15 04:20:46;;;;;;;17.92;13.15;;;;;;;;;;5072380;28;20020;-68
2022/08/15 04:23:12;;;;;;;14.77;10.20;;;;;;;;;;5072469;28;20044;-68
2022/08/15 04:25:40;;;;;;;14.10;11.00;;;;;;;;;;5072233;28;20025;-68
2022/08/15 04:28:08;;;;;;;23.55;12.57;;;;;;;;;;5071697;28;20048;-67
2022/08/15 04:30:36;;;;;;;15.85;11.48;;;;;;;;;;5080828;28;20028;-68
2022/08/15 04:33:13;;;;;;;15.63;12.55;;;;;;;;;;5088088;28;20462;-68
2022/08/15 04:35:40;;;;;;;20.60;14.27;;;;;;;;;;5084163;28;20107;-68
2022/08/15 04:38:06;;;;;;;16.40;10.88;;;;;;;;;;5071923;28;20112;-68
2022/08/15 04:40:32;;;;;;;12.95;11.30;;;;;;;;;;5072087;28;20025;-68
2022/08/15 04:42:58;;;;;;;14.88;11.50;;;;;;;;;;5072291;28;20035;-68
2022/08/15 04:45:26;;;;;;;13.15;10.80;;;;;;;;;;5076239;28;20494;-68
2022/08/15 04:47:52;;;;;;;13.45;10.70;;;;;;;;;;5075681;28;20020;-68
2022/08/15 04:50:19;;;;;;;12.68;10.20;;;;;;;;;;5075678;28;20052;-68
2022/08/15 04:52:49;;;;;;;23.98;19.92;;;;;;;;;;5075748;28;20039;-68
2022/08/15 04:55:16;;;;;;;27.42;20.45;;;;;;;;;;5075530;28;20025;-68
2022/08/15 04:57:42;;;;;;;20.60;12.85;;;;;;;;;;5075757;28;20043;-68
2022/08/15 05:00:11;;;;;;;17.55;10.75;;;;;;;;;;5075867;28;20067;-68
2022/08/15 05:02:38;;;;;;;17.92;11.35;;;;;;;;;;5074135;28;20463;-69
2022/08/15 05:05:05;;;;;;;14.38;10.50;;;;;;;;;;5075711;28;20099;-68
2022/08/15 05:07:31;;;;;;;14.77;10.88;;;;;;;;;;5075536;28;20390;-68
2022/08/15 05:10:00;;;;;;;16.20;10.48;;;;;;;;;;5075484;28;20036;-68
2022/08/15 05:12:27;;;;;;;12.68;10.50;;;;;;;;;;5075579;28;20095;-68
2022/08/15 05:14:54;;;;;;;16.20;10.70;;;;;;;;;;5075483;28;20020;-68
2022/08/15 05:17:20;;;;;;;15.00;10.70;;;;;;;;;;5075426;28;20036;-68
2022/08/15 05:19:46;;;;;;;12.35;11.07;;;;;;;;;;5075297;28;20016;-68
2022/08/15 05:22:12;;;;;;;12.10;10.30;;;;;;;;;;5075328;28;20024;-67
2022/08/15 05:24:38;;;;;;;14.38;11.10;;;;;;;;;;5074977;28;20044;-67
2022/08/15 05:27:07;;;;;;;15.73;11.40;;;;;;;;;;5075232;28;20020;-68
2022/08/15 05:29:33;;;;;;;12.65;10.43;;;;;;;;;;5075013;28;20017;-68
2022/08/15 05:31:59;;;;;;;17.15;10.95;;;;;;;;;;5074839;28;20031;-68
2022/08/15 05:34:27;;;;;;;11.43;10.15;;;;;;;;;;5086945;28;20127;-68
2022/08/15 05:36:54;;;;;;;13.52;10.05;;;;;;;;;;5076038;28;20068;-68
2022/08/15 05:39:20;;;;;;;11.00;9.45;;;;;;;;;;5074872;28;20510;-68
2022/08/15 05:41:51;;;;;;;11.43;9.65;;;;;;;;;;5074719;28;20499;-68
2022/08/15 05:44:33;;;;;;;14.57;10.02;;;;;;;;;;5074798;28;20028;-68
2022/08/15 05:46:59;;;;;;;12.20;10.35;;;;;;;;;;5074814;28;20062;-69
2022/08/15 05:49:32;;;;;;;16.10;10.82;;;;;;;;;;5074697;28;20034;-68
2022/08/15 05:52:08;;;;;;;15.07;10.60;;;;;;;;;;5074493;28;20070;-68
2022/08/15 05:54:47;;;;;;;20.70;10.38;;;;;;;;;;5074373;28;20052;-68
2022/08/15 05:57:16;;;;;;;11.70;10.43;;;;;;;;;;5074158;28;20039;-67
2022/08/15 05:59:46;;;;;;;12.07;9.32;;;;;;;;;;5072815;28;20033;-67
2022/08/15 06:02:18;;;;;;;13.73;9.73;;;;;;;;;;5074390;28;20032;-68
2022/08/15 06:04:47;;;;;;;13.57;10.13;;;;;;;;;;5074565;28;20032;-67
2022/08/15 06:07:15;;;;;;;10.35;9.35;;;;;;;;;;5074292;28;20030;-67
2022/08/15 06:09:41;;;;;;;16.38;9.90;;;;;;;;;;5074020;28;20024;-67
2022/08/15 06:12:12;;;;;;;16.83;10.38;;;;;;;;;;5074161;28;20056;-67
2022/08/15 06:14:45;;;;;;;12.25;9.68;;;;;;;;;;5074142;28;20040;-67
2022/08/15 06:17:23;;;;;;;14.18;11.38;;;;;;;;;;5072232;28;20044;-68
2022/08/15 06:19:50;;;;;;;14.60;10.40;;;;;;;;;;5074023;28;20024;-68
2022/08/15 06:22:28;;;;;;;13.45;9.98;;;;;;;;;;5073818;28;20025;-68
2022/08/15 06:24:54;;;;;;;12.98;10.55;;;;;;;;;;5073941;28;20016;-67
2022/08/15 06:27:32;;;;;;;14.50;9.70;;;;;;;;;;5074089;28;20024;-68
2022/08/15 06:30:06;;;;;;;13.10;9.75;;;;;;;;;;5072692;28;20020;-67
2022/08/15 06:32:41;;;;;;;13.48;9.73;;;;;;;;;;5073888;28;20021;-68
2022/08/15 06:35:23;;;;;;;15.85;9.55;;;;;;;;;;5088114;28;20044;-68
2022/08/15 06:37:49;;;;;;;15.70;9.63;;;;;;;;;;5071881;28;20494;-68
2022/08/15 06:40:21;;;;;;;17.00;9.25;;;;;;;;;;5073485;28;20489;-68
2022/08/15 06:42:47;;;;;;;11.43;9.82;;;;;;;;;;5073571;28;20025;-69
2022/08/15 06:45:36;;;;;;;12.93;8.88;;;;;;;;;;5073569;28;20017;-68
2022/08/15 06:48:03;;;;;;;11.32;9.00;;;;;;;;;;5073371;28;20094;-68
2022/08/15 06:50:37;;;;;;;9.35;8.32;;;;;;;;;;5073306;28;20024;-69
2022/08/15 06:53:06;;;;;;;11.90;8.88;;;;;;;;;;5073249;28;20070;-67
2022/08/15 06:55:41;;;;;;;12.30;8.98;;;;;;;;;;5073364;28;20021;-69
2022/08/15 06:58:11;;;;;;;16.83;9.73;;;;;;;;;;5073033;28;20037;-69
2022/08/15 07:00:38;;;;;;;10.32;8.23;;;;;;;;;;5073015;28;20031;-68
2022/08/15 07:03:29;;;;;;;9.88;8.68;;;;;;;;;;5073264;28;20044;-69
2022/08/15 07:05:57;;;;;;;12.07;9.18;;;;;;;;;;5069636;28;20055;-67
2022/08/15 07:08:23;;;;;;;11.73;8.25;;;;;;;;;;5072271;28;20033;-69
2022/08/15 07:10:52;;;;;;;12.20;8.85;;;;;;;;;;5072799;28;20367;-69
2022/08/15 07:13:23;;;;;;;12.60;8.52;;;;;;;;;;5073077;28;20032;-69
2022/08/15 07:16:09;;;;;;;8.63;7.83;;;;;;;;;;5073162;28;20032;-68
2022/08/15 07:18:39;;;;;;;8.82;7.63;;;;;;;;;;5072847;28;20067;-68
2022/08/15 07:21:09;;;;;;;13.05;8.55;;;;;;;;;;5077106;28;20031;-69
2022/08/15 07:23:38;;;;;;;10.32;8.30;;;;;;;;;;5082314;28;20017;-68
2022/08/15 07:26:10;;;;;;;8.90;7.80;;;;;;;;;;5072757;28;20104;-69
2022/08/15 07:28:38;;;;;;;11.80;8.10;;;;;;;;;;5072991;28;20017;-69
2022/08/15 07:31:10;;;;;;;9.35;7.60;;;;;;;;;;5072799;28;20028;-69
2022/08/15 07:33:36;;;;;;;8.82;7.93;;;;;;;;;;5078164;28;20016;-69
2022/08/15 07:36:08;;;;;;;10.63;8.02;;;;;;;;;;5081597;28;20060;-69
2022/08/15 07:38:34;;;;;;;9.63;7.22;;;;;;;;;;5072511;28;20041;-68
2022/08/15 07:41:15;;;;;;;8.68;7.43;;;;;;;;;;5072712;28;20125;-69
2022/08/15 07:43:41;;;;;;;8.82;7.43;;;;;;;;;;5072491;28;20106;-67
2022/08/15 07:46:07;;;;;;;13.57;8.43;;;;;;;;;;5072767;28;20416;-67
2022/08/15 07:48:34;;;;;;;9.23;7.78;;;;;;;;;;5072565;28;20021;-67
2022/08/15 07:51:06;;;;;;;10.25;8.27;;;;;;;;;;5071427;28;20074;-69
2022/08/15 07:53:33;;;;;;;10.30;8.70;;;;;;;;;;5072477;28;20048;-69
2022/08/15 07:56:04;;;;;;;8.90;8.00;;;;;;;;;;5072449;28;20021;-70
2022/08/15 07:58:32;;;;;;;9.15;7.93;;;;;;;;;;5086528;28;20123;-69
2022/08/15 08:01:25;;;;;;;9.10;7.75;;;;;;;;;;5072575;28;20020;-69
2022/08/15 08:04:00;;;;;;;10.90;7.43;;;;;;;;;;5070580;28;20028;-69
2022/08/15 08:06:33;;;;;;;9.30;7.95;;;;;;;;;;5072496;28;20037;-69
2022/08/15 08:09:12;;;;;;;11.30;8.10;;;;;;;;;;5072271;28;20378;-69
2022/08/15 08:11:44;;;;;;;9.38;8.38;;;;;;;;;;5072200;28;20628;-69
2022/08/15 08:14:20;;;;;;;10.25;8.27;;;;;;;;;;5072196;28;20029;-69
2022/08/15 08:16:51;;;;;;;10.45;7.43;;;;;;;;;;5072313;28;20466;-68
2022/08/15 08:19:17;;;;;;;10.10;7.65;;;;;;;;;;5074561;28;20048;-69
2022/08/15 08:21:55;;;;;;;9.00;7.72;;;;;;;;;;5076331;28;20029;-69
2022/08/15 08:24:33;;;;;;;8.30;7.47;;;;;;;;;;5075930;28;20054;-69
2022/08/15 08:27:22;;;;;;;12.10;8.13;;;;;;;;;;5076005;28;20020;-69
2022/08/15 08:29:48;;;;;;;10.30;7.82;;;;;;;;;;5017447;28;20029;-69
2022/08/15 08:32:15;;;;;;;9.82;8.43;;;;;;;;;;5046134;28;20029;-69
2022/08/15 08:34:56;;;;;;;10.07;8.35;;;;;;;;;;5053410;28;20098;-69
2022/08/15 08:37:32;;;;;;;10.10;8.77;;;;;;;;;;5053501;28;20499;-69
2022/08/15 08:43:15;;;;;;;8.50;7.50;;;;;;;;;;5038776;28;20036;-68
2022/08/15 08:46:01;;;;;;;8.90;7.80;;;;;;;;;;5033571;28;20160;-69
2022/08/15 08:48:38;;;;;;;8.15;7.35;;;;;;;;;;5033455;28;20037;-69
2022/08/15 08:51:10;;;;;;;9.20;7.82;;;;;;;;;;5033681;28;20021;-69
2022/08/15 08:53:52;;;;;;;9.70;7.82;;;;;;;;;;5033301;28;20076;-69
2022/08/15 08:56:21;;;;;;;9.52;8.13;;;;;;;;;;5033534;28;20033;-69
2022/08/15 08:58:51;;;;;;;13.50;10.10;;;;;;;;;;5033387;28;20038;-69
2022/08/15 09:01:22;;;;;;;8.48;7.65;;;;;;;;;;5033600;28;20120;-69
2022/08/15 09:03:51;;;;;;;9.57;8.07;;;;;;;;;;5033346;28;20033;-69
2022/08/15 09:06:22;;;;;;;12.77;9.68;;;;;;;;;;5033080;28;20737;-69
2022/08/15 09:08:53;;;;;;;9.55;8.32;;;;;;;;;;5034400;28;20412;-69
2022/08/15 09:11:25;;;;;;;8.82;7.72;;;;;;;;;;5045113;28;20494;-69
2022/08/15 09:13:51;;;;;;;9.25;7.88;;;;;;;;;;5066006;28;20042;-69
2022/08/15 09:16:17;;;;;;;8.05;7.25;;;;;;;;;;5075264;28;20479;-69
2022/08/15 09:18:50;;;;;;;9.75;7.78;;;;;;;;;;5075029;28;20482;-69
2022/08/15 09:21:18;;;;;;;8.13;7.25;;;;;;;;;;5074877;28;20032;-69
2022/08/15 09:23:45;;;;;;;9.02;8.13;;;;;;;;;;5073771;28;20394;-69
2022/08/15 09:26:14;;;;;;;10.32;8.05;;;;;;;;;;5074817;28;20016;-69
2022/08/15 09:28:45;;;;;;;10.30;7.93;;;;;;;;;;5074906;28;20016;-69
2022/08/15 09:31:11;;;;;;;8.30;6.72;;;;;;;;;;5073970;28;20044;-69
2022/08/15 09:33:37;;;;;;;8.27;7.18;;;;;;;;;;5080219;28;20016;-69
2022/08/15 09:36:03;;;;;;;8.98;8.07;;;;;;;;;;5083606;28;20151;-69
2022/08/15 09:38:55;;;;;;;7.72;6.82;;;;;;;;;;5074650;28;20387;-69
2022/08/15 09:41:22;;;;;;;7.13;6.43;;;;;;;;;;5075026;28;20072;-68
2022/08/15 09:44:00;;;;;;;10.70;8.00;;;;;;;;;;5074545;28;20025;-68
2022/08/15 09:46:30;;;;;;;8.07;7.28;;;;;;;;;;5074838;28;20082;-68
2022/08/15 09:49:08;;;;;;;7.53;6.65;;;;;;;;;;5074654;28;20059;-69
2022/08/15 09:51:47;;;;;;;7.40;6.68;;;;;;;;;;5074675;28;20031;-69
2022/08/15 09:54:20;;;;;;;7.35;6.60;;;;;;;;;;5075011;28;20040;-69
2022/08/15 09:56:47;;;;;;;8.43;7.43;;;;;;;;;;5074182;28;20020;-69
2022/08/15 09:59:19;;;;;;;8.38;7.13;;;;;;;;;;5074425;28;20085;-69
2022/08/15 10:01:48;;;;;;;8.07;7.30;;;;;;;;;;5074356;28;20024;-69
2022/08/15 10:04:17;;;;;;;7.07;6.38;;;;;;;;;;5074245;28;20027;-69
2022/08/15 10:06:58;;;;;;;10.45;7.30;;;;;;;;;;5074330;28;20052;-69
2022/08/15 10:09:31;;;;;;;8.25;7.35;;;;;;;;;;5074102;28;20035;-69
2022/08/15 10:12:00;;;;;;;10.45;7.60;;;;;;;;;;5074143;28;20370;-68
2022/08/15 10:14:40;;;;;;;13.55;10.10;;;;;;;;;;5074092;28;20029;-69
2022/08/15 10:17:39;;;;;;;7.93;7.22;;;;;;;;;;5073963;28;20032;-69
2022/08/15 10:20:14;;;;;;;8.23;7.43;;;;;;;;;;5041955;28;20043;-69
2022/08/15 10:23:00;;;;;;;8.32;6.57;;;;;;;;;;5017874;28;20033;-69
2022/08/15 10:25:37;;;;;;;7.88;7.05;;;;;;;;;;5012186;28;20037;-69
2022/08/15 10:28:12;;;;;;;9.65;7.60;;;;;;;;;;5011758;28;20046;-69
2022/08/15 10:30:46;;;;;;;8.73;7.82;;;;;;;;;;5011946;28;20034;-69
2022/08/15 10:33:30;;;;;;;7.97;6.93;;;;;;;;;;5014054;28;20029;-69
2022/08/15 10:36:05;;;;;;;7.55;6.72;;;;;;;;;;5031428;28;20061;-69
2022/08/15 10:38:32;;;;;;;8.38;6.80;;;;;;;;;;5031429;28;20047;-69
2022/08/15 10:41:17;;;;;;;9.02;7.18;;;;;;;;;;5031431;28;20037;-70
2022/08/15 10:43:43;;;;;;;9.43;7.22;;;;;;;;;;5031488;28;20036;-69
2022/08/15 10:46:12;;;;;;;6.90;6.22;;;;;;;;;;5031633;28;20022;-69
2022/08/15 10:48:50;;;;;;;8.00;6.13;;;;;;;;;;5031313;28;20088;-69
2022/08/15 10:51:21;;;;;;;8.30;7.25;;;;;;;;;;5031325;28;20088;-69
2022/08/15 10:54:23;;;;;;;8.38;7.57;;;;;;;;;;5031357;28;20026;-69
2022/08/15 10:56:54;;;;;;;11.35;7.20;;;;;;;;;;4972300;28;20483;-69
2022/08/15 10:59:23;;;;;;;8.30;7.32;;;;;;;;;;4972557;28;20046;-70
2022/08/15 11:01:51;;;;;;;7.20;6.50;;;;;;;;;;4980016;28;20038;-69
2022/08/15 11:04:34;;;;;;;7.53;6.80;;;;;;;;;;5011343;28;20041;-70
2022/08/15 11:07:03;;;;;;;9.10;6.80;;;;;;;;;;5011269;28;20037;-70
2022/08/15 11:09:29;;;;;;;7.38;6.68;;;;;;;;;;5011531;28;20029;-70
2022/08/15 11:11:57;;;;;;;9.57;6.88;;;;;;;;;;5011174;28;20037;-70
2022/08/15 11:14:26;;;;;;;7.72;6.85;;;;;;;;;;5011157;28;20037;-69
2022/08/15 11:16:53;;;;;;;9.60;6.85;;;;;;;;;;5011072;28;20034;-69
2022/08/15 11:19:19;;;;;;;7.47;6.75;;;;;;;;;;5011134;28;20046;-69
2022/08/15 11:21:50;;;;;;;7.82;7.03;;;;;;;;;;5011375;28;20505;-70
2022/08/15 11:24:24;;;;;;;6.63;5.95;;;;;;;;;;5011112;28;20042;-70
2022/08/15 11:26:51;;;;;;;7.78;6.97;;;;;;;;;;5011088;28;20037;-70
2022/08/15 11:29:22;;;;;;;7.45;6.75;;;;;;;;;;5011048;28;20029;-69
2022/08/15 11:31:53;;;;;;;7.47;6.30;;;;;;;;;;5068423;28;20419;-70
2022/08/15 11:34:19;;;;;;;;;;;;;;;;;;5084582;28;20016;-70
2022/08/15 11:36:45;;;;;;;7.18;6.47;;;;;;;;;;5075155;28;19921;-70
2022/08/15 11:39:16;;;;;;;7.43;6.72;;;;;;;;;;5072571;28;20028;-69
2022/08/15 11:41:47;;;;;;;8.85;6.80;;;;;;;;;;5072182;28;20032;-70
2022/08/15 11:44:14;;;;;;;7.43;6.72;;;;;;;;;;5072762;28;20019;-69
2022/08/15 11:46:41;;;;;;;7.47;6.78;;;;;;;;;;5072517;28;20021;-70
2022/08/15 11:49:08;;;;;;;8.40;7.22;;;;;;;;;;5072589;28;20013;-70
2022/08/15 11:51:36;;;;;;;7.13;6.43;;;;;;;;;;5072916;28;20154;-70
2022/08/15 11:54:05;;;;;;;7.55;6.85;;;;;;;;;;5071943;28;20016;-70
2022/08/15 11:56:43;;;;;;;7.88;7.07;;;;;;;;;;5072262;28;20460;-70
2022/08/15 11:59:14;;;;;;;7.15;6.45;;;;;;;;;;5072264;28;20035;-70
2022/08/15 12:01:40;;;;;;;8.00;7.28;;;;;;;;;;5072586;28;20099;-70
2022/08/15 12:04:08;;;;;;;7.97;7.18;;;;;;;;;;5072255;28;20036;-70
2022/08/15 12:06:39;;;;;;;7.85;7.05;;;;;;;;;;5072370;28;20497;-69
2022/08/15 12:09:05;;;;;;;;;;;;;;;;;;5072673;28;20024;-70
2022/08/15 12:11:31;;;;;;;7.72;6.72;;;;;;;;;;5072385;28;19904;-69
2022/08/15 12:14:04;;;;;;;7.78;6.97;;;;;;;;;;5072164;28;20021;-68
2022/08/15 12:16:32;;;;;;;7.97;7.22;;;;;;;;;;5070764;28;20040;-68
2022/08/15 12:19:19;;;;;;;7.75;6.88;;;;;;;;;;5072471;28;20079;-70
2022/08/15 12:21:49;;;;;;;7.47;6.70;;;;;;;;;;5072025;28;20025;-70
2022/08/15 12:24:21;;;;;;;8.20;7.40;;;;;;;;;;5072286;28;20042;-70
2022/08/15 12:26:49;;;;;;;8.10;6.95;;;;;;;;;;5072190;28;20074;-69
2022/08/15 12:29:17;;;;;;;7.65;6.93;;;;;;;;;;5072088;28;20115;-70
2022/08/15 12:31:43;;;;;;;7.90;7.10;;;;;;;;;;5072277;28;20467;-70
2022/08/15 12:34:24;;;;;;;7.65;6.85;;;;;;;;;;5081921;28;20020;-69
2022/08/15 12:36:51;;;;;;;7.72;6.72;;;;;;;;;;5073964;28;20106;-70
2022/08/15 12:39:17;;;;;;;8.75;7.55;;;;;;;;;;5072033;28;20024;-69
2022/08/15 12:41:46;;;;;;;9.85;7.72;;;;;;;;;;5071912;28;20021;-70
2022/08/15 12:44:18;;;;;;;7.03;6.32;;;;;;;;;;5072384;28;20025;-70
2022/08/15 12:46:44;;;;;;;7.93;6.72;;;;;;;;;;5071783;28;20096;-70
2022/08/15 12:49:11;;;;;;;7.65;6.82;;;;;;;;;;5071995;28;20046;-71
2022/08/15 12:51:37;;;;;;;7.70;6.85;;;;;;;;;;5072042;28;20029;-70
2022/08/15 12:54:03;;;;;;;7.85;6.57;;;;;;;;;;5071950;28;20019;-70
2022/08/15 12:56:29;;;;;;;7.93;7.22;;;;;;;;;;5071934;28;20035;-70
2022/08/15 12:58:55;;;;;;;6.90;6.20;;;;;;;;;;5071706;28;20111;-70
2022/08/15 13:01:22;;;;;;;8.02;7.22;;;;;;;;;;5072414;28;20021;-70
2022/08/15 13:03:48;;;;;;;8.00;7.20;;;;;;;;;;5072333;28;20086;-70
2022/08/15 13:06:22;;;;;;;7.57;6.88;;;;;;;;;;5086215;28;20533;-70
2022/08/15 13:08:48;;;;;;;9.98;7.38;;;;;;;;;;5075361;28;20045;-70
2022/08/15 13:11:14;;;;;;;9.75;7.18;;;;;;;;;;5075305;28;20016;-70
2022/08/15 13:13:40;;;;;;;7.43;6.72;;;;;;;;;;5075296;28;20024;-70
2022/08/15 13:16:08;;;;;;;7.57;6.72;;;;;;;;;;5074980;28;20095;-70
2022/08/15 13:18:35;;;;;;;7.20;6.50;;;;;;;;;;5075131;28;20029;-70
2022/08/15 13:23:54;;;;;;;8.02;7.22;;;;;;;;;;5006374;28;20066;-70
2022/08/15 13:26:21;;;;;;;7.80;7.10;;;;;;;;;;5013040;28;20037;-69
2022/08/15 13:28:47;;;;;;;7.55;6.85;;;;;;;;;;5013116;28;20080;-70
2022/08/15 13:31:15;;;;;;;7.55;6.78;;;;;;;;;;5013040;28;20105;-70
2022/08/15 13:33:42;;;;;;;8.98;7.70;;;;;;;;;;5013197;28;20479;-70
2022/08/15 13:36:10;;;;;;;10.20;9.25;;;;;;;;;;5012810;28;20544;-69
2022/08/15 13:38:41;;;;;;;7.97;7.28;;;;;;;;;;5012856;28;20052;-69
2022/08/15 13:41:07;;;;;;;8.07;7.28;;;;;;;;;;5013038;28;20137;-69
2022/08/15 13:43:33;;;;;;;8.63;7.82;;;;;;;;;;5012549;28;20026;-69
2022/08/15 13:46:01;;;;;;;9.02;7.70;;;;;;;;;;5012930;28;20029;-70
2022/08/15 13:48:34;;;;;;;8.70;7.05;;;;;;;;;;5012845;28;20127;-69
2022/08/15 13:51:00;;;;;;;9.57;8.57;;;;;;;;;;5012914;28;20112;-68
2022/08/15 13:53:27;;;;;;;9.18;8.02;;;;;;;;;;5012510;28;20444;-68
2022/08/15 13:55:53;;;;;;;10.05;8.05;;;;;;;;;;5012745;28;20018;-68
2022/08/15 13:58:19;;;;;;;8.75;7.57;;;;;;;;;;5012463;28;20048;-68
2022/08/15 14:00:46;;;;;;;8.23;7.43;;;;;;;;;;5041749;28;20029;-68
2022/08/15 14:03:18;;;;;;;8.65;7.85;;;;;;;;;;5074395;28;20039;-68
2022/08/15 14:05:45;;;;;;;9.85;7.78;;;;;;;;;;5074390;28;20017;-68
2022/08/15 14:08:11;;;;;;;7.28;6.57;;;;;;;;;;5073150;28;20027;-68
2022/08/15 14:10:38;;;;;;;9.57;7.75;;;;;;;;;;5074367;28;20566;-69
2022/08/15 14:13:04;;;;;;;8.85;8.05;;;;;;;;;;5074040;28;20421;-69
2022/08/15 14:15:30;;;;;;;7.80;7.10;;;;;;;;;;5074119;28;20082;-69
2022/08/15 14:17:58;;;;;;;10.02;7.07;;;;;;;;;;5073768;28;20064;-69
2022/08/15 14:20:25;;;;;;;13.23;7.60;;;;;;;;;;5074328;28;20409;-68
2022/08/15 14:22:51;;;;;;;8.88;7.30;;;;;;;;;;5073802;28;20020;-69
2022/08/15 14:25:17;;;;;;;10.13;8.57;;;;;;;;;;5073935;28;20024;-69
2022/08/15 14:27:45;;;;;;;9.13;7.38;;;;;;;;;;5073509;28;20035;-68
2022/08/15 14:30:12;;;;;;;8.68;7.88;;;;;;;;;;5073907;28;20012;-68
2022/08/15 14:32:38;;;;;;;8.95;7.32;;;;;;;;;;5073983;28;20021;-69
2022/08/15 14:35:05;;;;;;;8.85;7.22;;;;;;;;;;5088011;28;20467;-70
2022/08/15 14:37:32;;;;;;;9.27;7.47;;;;;;;;;;5072203;28;20076;-70
2022/08/15 14:39:59;;;;;;;10.07;7.88;;;;;;;;;;5073575;28;20082;-70
2022/08/15 14:42:26;;;;;;;10.63;7.85;;;;;;;;;;5073484;28;20099;-70
2022/08/15 14:44:53;;;;;;;8.07;7.30;;;;;;;;;;5073434;28;20495;-70
2022/08/15 14:47:20;;;;;;;9.88;8.23;;;;;;;;;;5073576;28;20029;-70
2022/08/15 14:49:47;;;;;;;9.40;7.38;;;;;;;;;;5073534;28;20493;-70
2022/08/15 14:52:15;;;;;;;8.23;7.43;;;;;;;;;;5073304;28;20063;-70
2022/08/15 14:54:42;;;;;;;7.95;7.15;;;;;;;;;;5073464;28;20013;-70